Terminal Aerodrome Forecast
Issued by NWS

Home | Current Version | Previous Version | Text Only | Print | Product List | Glossary Off
Versions: 1 2 3 4 5 6 7 8 9 10 11 12 13 14

000
FTUS43 KGRB 171023 AAA
TAFRHI
TAF AMD
KRHI 171023Z 1710/1806 15005KT P6SM BKN200
      TEMPO 1710/1714 5SM BR
     FM171500 19007KT P6SM SCT250
     FM180300 23008KT 4SM BR SCT015 SCT250=

USA.gov is the U.S. government's official web portal to all federal, state and local government web resources and services.